Station: Roseworthy

  Atmospheric Gas Attenuation - ITU Rec 676-11   --------------- db/100km ---------------
Date Time Temp RH % AH g/m3 Dew Point Wind Direction Speed kph Gust kph Barometer mB Rainfall Since 9am 24GHz 47GHz 76GHz 122GHz 134GHz 241GHz
13 09:20 9.2 0 0 1027.9 0
13 09:10 7.9 0 0 1027.8 0
13 09:00 7.5 0 2 1027.9 0
13 08:50 6.5 7.5 0 0 1027.7 0
13 08:40 6.3 7.3 0 0 1027.7 0
13 08:30 5 5.8 6 7 1027.6 0
13 08:20 4.5 5.3 7 7 1027.3 0
13 08:10 2.8 3.5 6 6 1027.3 0
13 08:00 2.6 100 5.79 2.6 9 11 1027.3 0 14.0 25.0 34.1 88.8 73.8 250.6
13 07:50 2.2 2.8 11 11 1027.2 0
13 07:40 1.1 1.6 11 13 1027.1 0
13 07:30 1.8 2.3 9 9 1027 0
13 07:20 1.3 1.8 7 9 1026.9 0
13 07:10 1.1 1.6 7 9 1026.8 0
13 07:00 1.7 100 5.45 1.7 11 13 1026.7 0 13.3 24.6 33.0 85.9 69.9 236.7
13 06:50 1.8 2.3 11 13 1026.5 0
13 06:40 1.3 1.8 9 11 1026.5 0
13 06:30 1.3 100 5.3 1.3 11 13 1026.6 0 13.0 24.5 32.5 84.7 68.2 230.6
13 06:20 0.7 1.2 11 13 1026.3 0
13 06:10 1.4 1.9 7 7 1026.2 0
13 06:00 1.2 100 5.27 1.2 6 9 1026.3 0 13.0 24.4 32.4 84.4 67.8 229.4
13 05:50 0.8 1.2 9 9 1026.2 0
13 05:40 0.9 1.3 9 9 1026.1 0
13 05:30 1.3 100 5.3 1.3 9 11 1026.1 0 13.0 24.5 32.5 84.6 68.1 230.5
13 05:20 1.4 1.9 7 9 1025.9 0
13 05:10 1.8 2.2 9 9 1025.9 0
13 04:50 1.2 1.7 7 7 1025.7 0
13 04:40 2 2.5 7 9 1025.6 0
13 04:30 2.1 100 5.6 2.1 11 13 1025.7 0 13.6 24.7 33.4 87.1 71.6 242.6
13 04:20 2.5 3.1 7 9 1025.5 0
13 04:10 2.5 3.1 13 13 1025.4 0
13 04:00 2.5 100 5.75 2.5 13 15 1025.5 0 13.9 24.9 33.9 88.3 73.2 248.6
13 03:50 2.1 2.6 13 13 1025.5 0
13 03:40 2.3 2.7 13 13 1025.5 0
13 03:30 2.1 100 5.6 2.1 11 13 1025.6 0 13.6 24.7 33.4 87.1 71.5 242.6
13 03:20 1.8 2.2 11 11 1025.5 0
13 03:10 1.6 2 13 13 1025.5 0
13 03:00 2 100 5.56 2 9 11 1025.6 0 13.6 24.7 33.3 86.7 71.1 240.9
13 02:50 1.5 1.9 9 9 1025.6 0
13 02:40 1.8 2.2 9 9 1025.5 0
13 02:30 1.7 100 5.45 1.7 7 9 1025.5 0 13.3 24.6 32.9 85.8 69.8 236.5
13 02:20 2.4 2.8 7 7 1025.4 0
13 02:10 2.6 3 7 9 1025.3 0
13 02:00 2 100 5.56 2 9 13 1025.4 0 13.6 24.7 33.3 86.7 71.1 240.9
13 01:50 1.9 2.2 9 9 1025.2 0
13 01:40 2.2 2.6 9 11 1025.1 0
13 01:30 2.9 100 5.91 2.9 7 9 1025.3 0 14.3 25.0 34.4 89.6 75.1 255.1
13 01:20 2.2 2.5 9 11 1025.1 0
13 01:10 2.2 2.5 7 7 1025 0
13 01:00 3.1 100 5.99 3.1 7 9 1025.1 0 14.4 25.1 34.6 90.3 76.0 258.3
13 00:50 3.3 3.6 9 9 1025.1 0
13 00:40 2.5 2.6 11 11 1025.1 0
13 00:30 2.2 100 5.64 2.2 4 9 1025.1 0 13.7 24.7 33.5 87.4 72.0 244.1
13 00:20 2.3 2.4 9 9 1025.1 0
13 00:10 2.6 2.7 6 6 1025.1 0
13 00:00 2.8 100 5.87 2.8 7 7 1025.3 0 14.2 25.0 34.2 89.3 74.6 253.4
12 23:50 2.9 3 7 7 1025.1 0
12 23:40 3 3.1 6 6 1025.1 0
12 23:30 2.8 100 5.87 2.8 9 11 1025.1 0 14.2 25.0 34.2 89.3 74.6 253.4
12 23:20 2.7 2.8 7 7 1025 0
12 23:10 3.4 3.5 7 7 1024.9 0
12 23:00 2.9 100 5.91 2.9 11 13 1025.1 0 14.3 25.0 34.3 89.6 75.1 255.0
12 22:50 2.5 100 5.75 2.5 11 11 1024.9 0 13.9 24.8 33.8 88.2 73.2 248.5
12 22:40 3.3 100 6.07 3.3 0 0 1024.9 0 14.6 25.2 34.8 90.9 76.9 261.5
12 22:30 3.4 100 6.11 3.4 0 0 1024.8 0 14.7 25.2 35.0 91.2 77.3 263.1
12 22:20 3.4 100 6.11 3.4 0 0 1024.7 0 14.7 25.2 35.0 91.2 77.3 263.0
12 22:10 3.9 100 6.32 3.9 0 0 1024.5 0 15.1 25.4 35.6 93.0 79.7 271.5
12 22:00 3.9 99 6.26 3.8 0 0 1024.6 0 15.0 25.3 35.4 92.3 78.9 268.6
12 21:50 4 99 6.3 3.9 0 0 1024.5 0 15.1 25.3 35.5 92.7 79.3 270.2
12 21:40 3.7 98 6.11 3.4 0 0 1024.6 0 14.7 25.1 34.8 90.9 77.0 262.0
12 21:30 3.9 98 6.19 3.6 7 9 1024.7 0 14.8 25.2 35.1 91.6 77.9 265.3
12 21:20 4.2 98 6.32 3.9 9 9 1024.6 0 15.1 25.3 35.5 92.6 79.4 270.5
12 21:10 4.2 97 6.26 3.8 6 7 1024.7 0 15.0 25.2 35.2 92.0 78.6 267.6
12 21:00 3.8 96 6.03 3.2 7 9 1024.8 0 14.5 24.9 34.4 89.9 75.8 257.8
12 20:50 5.7 98 6.98 5.4 7 9 1024.7 0 16.5 26.0 37.6 98.3 87.0 297.3
12 20:40 5.8 97 6.95 5.4 7 9 1024.6 0 16.4 25.9 37.4 97.8 86.5 295.5
12 20:30 4.8 96 6.44 4.2 7 7 1024.4 0 15.3 25.3 35.7 93.3 80.4 274.2
12 20:20 6.4 97 7.23 6 6 7 1024.3 0 17.0 26.2 38.3 100.2 89.7 306.8
12 20:10 6.2 96 7.06 5.6 6 7 1024.2 0 16.6 26.0 37.7 98.5 87.5 299.2
12 20:00 4.9 93 6.28 3.9 7 7 1024.1 0 15.0 25.0 35.0 91.3 78.1 266.1
12 19:50 6 94 6.83 5.1 7 7 1023.9 0 16.1 25.6 36.8 96.1 84.5 288.7
12 19:40 6.4 94 7.01 5.5 0 0 1023.6 0 16.5 25.8 37.3 97.6 86.6 295.9
12 19:30 6.3 91 6.74 4.9 0 0 1023.6 0 15.9 25.4 36.2 94.7 82.9 283.2
12 19:20 6.9 91 7.01 5.5 0 0 1023.4 0 16.5 25.7 37.1 97.0 86.0 293.9
12 19:10 8.1 92 7.66 6.9 0 0 1023.2 0 17.8 26.4 39.2 102.7 93.6 320.6
12 19:00 7.7 90 7.3 6.2 7 9 1023.3 0 17.1 25.9 37.9 99.2 89.1 304.8
12 18:50 7.2 87 6.83 5.2 7 7 1023 0 16.1 25.3 36.2 94.6 83.2 284.1
12 18:40 8.3 86 7.25 6.1 7 7 1022.9 0 16.9 25.6 37.4 97.8 87.7 300.0
12 18:30 8.9 84 7.36 6.3 9 11 1023 0 17.2 25.7 37.6 98.3 88.5 303.0
12 18:20 10 82 7.71 7.1 9 11 1022.6 0 17.9 25.9 38.5 100.7 91.9 315.1
12 18:10 10 83 7.8 7.3 11 13 1022.4 0 18.0 26.0 38.8 101.7 93.1 319.4
12 18:00 10.4 81 7.81 7.3 9 13 1022.4 0 18.0 25.9 38.7 101.3 92.8 318.2
12 17:50 10.7 81 7.96 7.6 9 11 1022 0 18.4 26.1 39.1 102.5 94.4 324.0
12 17:40 11.1 80 8.06 7.8 7 9 1021.9 0 18.6 26.1 39.3 103.1 95.3 327.0
12 17:30 11.1 81 8.16 8 9 13 1022 0 18.8 26.3 39.8 104.2 96.6 331.8
12 17:20 11.3 81 8.26 8.2 9 11 1021.7 0 19.0 26.4 40.1 105.0 97.7 335.6
12 17:10 12.3 78 8.47 8.6 11 13 1021.5 0 19.4 26.4 40.4 105.9 99.3 341.2
12 17:00 12.4 83 9.07 9.6 7 9 1021.5 0 20.7 27.4 42.8 112.4 107.3 369.4
12 16:50 12.6 82 9.07 9.6 7 7 1021.3 0 20.6 27.3 42.7 112.1 107.0 368.4
12 16:40 13.1 77 8.79 9.2 7 9 1021.2 0 20.0 26.7 41.3 108.3 102.5 352.7

Last Refresh: 13-Jul-2020 09:30:58

Most of the information presented on this site is sourced from the Bureau of Meteorology.  Copyright in all material sourced from the Bureau of Meteorology resides with the Commonwealth of Australia.